Updated23/09/2020 7:27pm 
 

Nearby Airport METAR Reports

 

KVSF - Springfield, Vermont, USA
Distance from station: WSW 8mi, 12km
Updated: 09/23/2020 6:54pm
Partly cloudy
Partly cloudy
 Wind from calm
Wind: Calm
Temperature: 66°F , 19°C
Dew Point: 52°F , 11°C
Humidity: 60%
Barometer: 29.81 inHg , 1009.5 hPa
Clouds: Partly cloudy
Visibility: 10 miles , 16 km
Cloud details: Partly cloudy 7000 ft
2020/09/23 22:54 KVSF 232254Z AUTO 00000KT 10SM SCT070 19/11 A2981 RMK AO2 SLP096 T01890111
KLEB - Lebanon, New Hampshire, USA
Distance from station: N 18mi, 29km
Updated: 09/23/2020 6:53pm
Clear
Clear
 Wind from calm
Wind: Calm
Temperature: 61°F , 16°C
Dew Point: 54°F , 12°C
Humidity: 77%
Barometer: 29.80 inHg , 1009.1 hPa
Clouds: Clear
Visibility: 10 miles , 16 km
2020/09/23 22:53 KLEB 232253Z 00000KT 10SM CLR 16/12 A2980 RMK AO2 SLP090 T01610117
KRUT - Rutland State, Vermont, USA
Distance from station: WNW 31mi, 50km
Updated: 09/23/2020 6:56pm
Few Clouds
Few Clouds
 Wind from calm
Wind: Calm
Temperature: 64°F , 18°C
Dew Point: 54°F , 12°C
Humidity: 68%
Barometer: 29.82 inHg , 1009.8 hPa
Clouds: Few Clouds
Visibility: 10 miles , 16 km
Cloud details: Few Clouds 6000 ft
2020/09/23 22:56 KRUT 232256Z AUTO 00000KT 10SM FEW060 18/12 A2982 RMK AO2 SLP096 T01780117 $
 
KEEN - Keene/Dillant, New Hampshire, USA
Distance from station: S 34mi, 55km
Updated: 09/23/2020 6:56pm
Clear
Clear
 Wind from NW
Wind: NW 3 mph , 6 km/h
Temperature: 68°F , 20°C
Dew Point: 52°F , 11°C
Humidity: 56%
Barometer: 29.81 inHg , 1009.5 hPa
Clouds: Clear
Visibility: 10 miles , 16 km
2020/09/23 22:56 KEEN 232256Z AUTO 32003KT 10SM CLR 20/11 A2981 RMK AO2 SLP099 T02000106 PNO $
K1P1 - Plymouth, New Hampshire, USA
Distance from station: NE 42mi, 67km
Updated: 09/23/2020 7:15pm
Clear
Clear
 
Temperature: 63°F , 17°C
Dew Point: 50°F , 10°C
Humidity: 64%
Barometer: 29.78 inHg , 1008.5 hPa
Clouds: Clear
Visibility: 10 miles , 16 km
2020/09/23 23:15 K1P1 232315Z AUTO 10SM CLR 17/10 A2978 RMK AO2 T01660104
KAFN - Jaffrey, New Hampshire, USA
Distance from station: SSE 44mi, 70km
Updated: 09/23/2020 6:52pm
Clear
Clear
 Wind from varies
Wind: varies 7 mph , 11 km/h
Temperature: 68°F , 20°C
Dew Point: 48°F , 9°C
Humidity: 49%
Barometer: 29.82 inHg , 1009.8 hPa
Clouds: Clear
Visibility: 10 miles , 16 km
2020/09/23 22:52 KAFN 232252Z AUTO VRB06KT 10SM CLR 20/09 A2982 RMK AO2 SLP102 T02000094
 
KCON - Concord, New Hampshire, USA
Distance from station: ESE 45mi, 73km
Updated: 09/23/2020 6:51pm
Clear
Clear
 Wind from NW
Wind: NW 8 mph , 13 km/h
Temperature: 68°F , 20°C
Dew Point: 48°F , 9°C
Humidity: 49%
Barometer: 29.77 inHg , 1008.1 hPa
Clouds: Clear
Visibility: 10 miles , 16 km
2020/09/23 22:51 KCON 232251Z AUTO 31007KT 10SM CLR 20/09 A2977 RMK AO2 SLP083 T02000094
KLCI - Laconia Muni, New Hampshire, USA
Distance from station: ENE 49mi, 80km
Updated: 09/23/2020 6:56pm
Clear
Clear
 Wind from W
Wind: W 6 mph , 9 km/h
Temperature: 68°F , 20°C
Dew Point: 52°F , 11°C
Humidity: 56%
Barometer: 29.78 inHg , 1008.5 hPa
Clouds: Clear
Visibility: 10 miles , 16 km
2020/09/23 22:56 KLCI 232256Z AUTO 28005KT 10SM CLR 20/11 A2978 RMK AO2 SLP085 T02000106
KDDH - Bennington, Vermont, USA
Distance from station: SW 55mi, 89km
Updated: 09/23/2020 6:54pm
Partly cloudy
Partly cloudy
 Wind from SW
Wind: SW 8 mph , 13 km/h
Temperature: 66°F , 19°C
Dew Point: 55°F , 13°C
Humidity: 68%
Barometer: 29.84 inHg , 1010.5 hPa
Clouds: Partly cloudy
Visibility: 10 miles , 16 km
Cloud details: Few Clouds 5000 ft
Partly cloudy 6500 ft
2020/09/23 22:54 KDDH 232254Z AUTO 23007KT 10SM FEW050 SCT065 19/13 A2984 RMK AO2 SLP107 T01940128
 
K6B0 - Middlebury, Vermont, USA
Distance from station: NW 56mi, 90km
Updated: 09/23/2020 7:15pm
Overcast
Overcast
 Wind from calm
Wind: Calm
Temperature: 61°F , 16°C
Dew Point: 54°F , 12°C
Humidity: 77%
Barometer: 29.82 inHg , 1009.8 hPa
Clouds: Overcast
Visibility: 10 miles , 16 km
Cloud details: Partly cloudy 5500 ft
Overcast 8000 ft
2020/09/23 23:15 K6B0 232315Z AUTO 00000KT 10SM SCT055 OVC080 16/12 A2982 RMK AO2 T01630115
KMHT - Manchester, New Hampshire, USA
Distance from station: ESE 56mi, 90km
Updated: 09/23/2020 6:53pm
Few Clouds
Few Clouds
 Wind from NW
Wind: NW 7 mph , 11 km/h
Temperature: 73°F , 23°C
Dew Point: 50°F , 10°C
Humidity: 44%
Barometer: 29.77 inHg , 1008.1 hPa
Clouds: Few Clouds
Visibility: 10 miles , 16 km
Cloud details: Few Clouds 6500 ft
2020/09/23 22:53 KMHT 232253Z 31006KT 10SM FEW065 23/10 A2977 RMK AO2 SLP091 T02280100
KORE - Orange, Massachusetts, USA
Distance from station: S 56mi, 90km
Updated: 09/23/2020 6:52pm
Mostly cloudy
Mostly cloudy
 Wind from W
Wind: W 7 mph , 11 km/h
Temperature: 72°F , 22°C
Dew Point: 55°F , 13°C
Humidity: 57%
Barometer: 29.82 inHg , 1009.8 hPa
Clouds: Mostly cloudy
Visibility: 10 miles , 16 km
Cloud details: Mostly cloudy 6000 ft
2020/09/23 22:52 KORE 232252Z AUTO 28006KT 10SM BKN060 22/13 A2982 RMK AO2 SLP099 T02170128
 
KMPV - Montpelier/Barre, Vermont, USA
Distance from station: N 58mi, 93km
Updated: 09/23/2020 6:51pm
Clear
Clear
 Wind from WNW
Wind: WNW 5 mph , 7 km/h
Temperature: 64°F , 18°C
Dew Point: 52°F , 11°C
Humidity: 64%
Barometer: 29.85 inHg , 1010.8 hPa
Clouds: Clear
Visibility: 10 miles , 16 km
2020/09/23 22:51 KMPV 232251Z AUTO 29004KT 10SM CLR 18/11 A2985 RMK AO2 SLP109 T01780106
KASH - Nashua/Boire Fld, New Hampshire, USA
Distance from station: SE 59mi, 95km
Updated: 09/23/2020 6:56pm
Clear
Clear
 Wind from WNW
Wind: WNW 5 mph , 7 km/h
Temperature: 72°F , 22°C
Dew Point: 52°F , 11°C
Humidity: 50%
Barometer: 29.79 inHg , 1008.8 hPa
Clouds: Clear
Visibility: 10 miles , 16 km
2020/09/23 22:56 KASH 232256Z 30004KT 10SM CLR 22/11 A2979 RMK AO2 SLP091 T02170106
KAQW - North Adams, Massachusetts, USA
Distance from station: SW 62mi, 99km
Updated: 09/23/2020 6:52pm
Light rain, Partly cloudy
Light rain, Partly cloudy
 Wind from W
Wind: W 12 mph , 19 km/h, Gust: 20 mph , 31 km/h
Temperature: 68°F , 20°C
Dew Point: 55°F , 13°C
Humidity: 64%
Barometer: 29.84 inHg , 1010.5 hPa
Summary: Light rain
Clouds: Partly cloudy
Visibility: 10 miles , 16 km
Cloud details: Partly cloudy 7000 ft
2020/09/23 22:52 KAQW 232252Z AUTO 26010G17KT 10SM -RA SCT070 20/13 A2984 RMK AO2 SLP105 P0000 T02000128
 
KGFL - Glens Falls, New York, USA
Distance from station: W 63mi, 101km
Updated: 09/23/2020 6:53pm
Clear
Clear
 Wind from calm
Wind: Calm
Temperature: 63°F , 17°C
Dew Point: 55°F , 13°C
Humidity: 77%
Barometer: 29.82 inHg , 1009.8 hPa
Clouds: Clear
Visibility: 10 miles , 16 km
2020/09/23 22:53 KGFL 232253Z AUTO 00000KT 10SM CLR 17/13 A2982 RMK AO2 SLP100 T01670128
KFIT - Fitchburg, Massachusetts, USA
Distance from station: SSE 65mi, 105km
Updated: 09/23/2020 6:52pm
Mostly cloudy
Mostly cloudy
 Wind from NW
Wind: NW 5 mph , 7 km/h
Temperature: 70°F , 21°C
Dew Point: 50°F , 10°C
Humidity: 50%
Barometer: 29.80 inHg , 1009.1 hPa
Clouds: Mostly cloudy
Visibility: 10 miles , 16 km
Cloud details: Mostly cloudy 7000 ft
2020/09/23 22:52 KFIT 232252Z AUTO 31004KT 10SM BKN070 21/10 A2980 RMK AO2 SLP091 T02110100
KDAW - Rochester, New Hampshire, USA
Distance from station: E 73mi, 118km
Updated: 09/23/2020 6:51pm
Clear
Clear
 Wind from WNW
Wind: WNW 12 mph , 19 km/h
Temperature: 70°F , 21°C
Dew Point: 48°F , 9°C
Humidity: 46%
Barometer: 29.75 inHg , 1007.5 hPa
Clouds: Clear
Visibility: 10 miles , 16 km
2020/09/23 22:51 KDAW 232251Z AUTO 30010KT 10SM CLR 21/09 A2975 RMK AO2 SLP071 T02110094
 
K1V4 - St. Johnsbury, Vermont, USA
Distance from station: NNE 74mi, 119km
Updated: 09/23/2020 6:54pm

 
Temperature: 66°F , 19°C
Dew Point: 54°F , 12°C
Humidity: 64%
Barometer: 29.78 inHg , 1008.5 hPa
2020/09/23 22:54 K1V4 232254Z AUTO 19/12 A2978 RMK AO1 SLP083 T01890117
KLWM - Lawrence, Massachusetts, USA
Distance from station: SE 77mi, 124km
Updated: 09/23/2020 6:54pm
Clear
Clear
 Wind from WNW
Wind: WNW 6 mph , 9 km/h
Temperature: 72°F , 22°C
Dew Point: 52°F , 11°C
Humidity: 50%
Barometer: 29.79 inHg , 1008.8 hPa
Clouds: Clear
Visibility: 10 miles , 16 km
2020/09/23 22:54 KLWM 232254Z 30005KT 10SM CLR 22/11 A2979 RMK AO2 SLP087 T02170106



Flag Counter
free counter page views since 4/29/2009